Emerald Coast — WDC9127 — position and weather

sailwx.info

Track history (hours):
 
Tides and Currents Weather Stations Pressure Air Temp Water Temp Dewpoint Dewpoint Depression Visibility Wind Speed Wind Dir Waves Ship Positions

Emerald Coast

Owner: Dann Marine Towing, LC, Chesapeake City, MD. More information available from US FCC via Universal Licensing System and Coast Guard Vessel Documentation Center.

Last reported at 2015-Mar-03 22:33 UTC. Time now 2015-Mar-03 22:38 UTC.
Position N 40°41' W 074°03'.

Length 28 m; draft 3 m.

Type: Towing. MMSI: 367097920.

Date/timePositionNaut miles runAvg speedWind from/ knotsBaromVisibWave heightAir tempDewpointWater temp
2015-Mar-03 22:33N 40°41' W 074°03'2 2.5
2015-Mar-03 21:33N 40°39' W 074°05'1 1.3
2015-Mar-03 20:27N 40°39' W 074°07'0 0.0
2015-Mar-03 19:30N 40°39' W 074°07'2 2.6
2015-Mar-03 18:33N 40°39' W 074°04'2 2.3
2015-Mar-03 17:30N 40°39' W 074°07'0 0.0
2015-Mar-03 16:32N 40°39' W 074°07'0 0.0
2015-Mar-03 15:29N 40°39' W 074°07'0 0.3
2015-Mar-03 14:29N 40°39' W 074°07'1 1.5
2015-Mar-03 13:33N 40°39' W 074°05'1 1.3
2015-Mar-03 12:33N 40°38' W 074°04'1 0.6
2015-Mar-03 11:33N 40°38' W 074°04'0 0.3
2015-Mar-03 10:33N 40°38' W 074°04'0 0.3
2015-Mar-03 09:33N 40°38' W 074°04'0 0.2
2015-Mar-03 08:33N 40°38' W 074°04'0 0.2
2015-Mar-03 07:33N 40°38' W 074°04'0 0.0
2015-Mar-03 06:33N 40°38' W 074°04'0 0.0
2015-Mar-03 05:33N 40°38' W 074°04'0 0.0
2015-Mar-03 04:33N 40°38' W 074°04'0 0.0
2015-Mar-03 03:33N 40°38' W 074°04'1 1.3
2015-Mar-03 02:33N 40°39' W 074°03'0 0.0
2015-Mar-03 01:33N 40°39' W 074°03'0 0.0
2015-Mar-03 00:33N 40°39' W 074°03'0 0.0
2015-Mar-02 23:33N 40°39' W 074°03'0 0.0
2015-Mar-02 22:33N 40°39' W 074°03'0 0.0
2015-Mar-02 21:33N 40°39' W 074°03'3 2.7
2015-Mar-02 20:32N 40°39' W 074°06'0 0.1
2015-Mar-02 19:33N 40°39' W 074°06'1 0.9
2015-Mar-02 18:33N 40°39' W 074°08'1 0.6
2015-Mar-02 16:33N 40°40' W 074°09'2 1.7
2015-Mar-02 15:32N 40°41' W 074°10'0 0.0
2015-Mar-02 14:32N 40°41' W 074°10'2 2.4
2015-Mar-02 13:33N 40°39' W 074°09'6 6.5
2015-Mar-02 12:33N 40°40' W 074°01'3 3.1
2015-Mar-02 11:33N 40°38' W 074°04'0 0.2
2015-Mar-02 10:33N 40°38' W 074°04'0 0.0
2015-Mar-02 09:33N 40°38' W 074°04'0 0.0
2015-Mar-02 08:33N 40°38' W 074°04'0 0.2
2015-Mar-02 07:33N 40°38' W 074°04'0 0.0
2015-Mar-02 06:33N 40°38' W 074°04'0 0.1
2015-Mar-02 05:33N 40°38' W 074°04'3 2.7
2015-Mar-02 04:33N 40°40' W 074°01'0 0.4
2015-Mar-02 03:33N 40°40' W 074°00'0 0.0
2015-Mar-02 02:33N 40°40' W 074°00'4 4.3
2015-Mar-02 01:33N 40°39' W 074°06'0 0.4
2015-Mar-02 00:33N 40°39' W 074°06'3 2.5
2015-Mar-01 23:33N 40°40' W 074°03'3 2.7
2015-Mar-01 22:33N 40°37' W 074°04'0 0.2
2015-Mar-01 21:33N 40°37' W 074°03'0 0.0
2015-Mar-01 20:33N 40°37' W 074°03'0 0.2
2015-Mar-01 19:29N 40°37' W 074°03'0 0.1
2015-Mar-01 18:33N 40°37' W 074°03'4 3.6
2015-Mar-01 17:33N 40°40' W 074°00'0 0.1
2015-Mar-01 16:33N 40°40' W 074°01'5 5.0
2015-Mar-01 15:33N 40°39' W 074°07'2 1.7
2015-Mar-01 14:33N 40°39' W 074°09'0 0.1
2015-Mar-01 13:33N 40°39' W 074°09'3 2.6
2015-Mar-01 12:33N 40°39' W 074°06'1 1.4
2015-Mar-01 11:33N 40°40' W 074°04'1 1.2
2015-Mar-01 10:33N 40°39' W 074°05'2 1.9
2015-Mar-01 09:33N 40°39' W 074°03'0 0.0
2015-Mar-01 08:33N 40°39' W 074°03'0 0.0
2015-Mar-01 07:33N 40°39' W 074°03'0 0.2
2015-Mar-01 06:33N 40°39' W 074°03'0 0.0
2015-Mar-01 05:33N 40°39' W 074°03'0 0.0
2015-Mar-01 04:33N 40°39' W 074°03'0 0.0
2015-Mar-01 03:32N 40°39' W 074°03'0 0.0
2015-Mar-01 02:33N 40°39' W 074°03'0 0.1
2015-Mar-01 01:33N 40°39' W 074°03'1 1.3
2015-Mar-01 00:32N 40°39' W 074°05'1 0.7
2015-Feb-28 23:33N 40°39' W 074°05'2 1.5
2015-Feb-28 22:33N 40°39' W 074°03'1 0.8
2015-Feb-28 21:23N 40°39' W 074°05'1 0.5
2015-Feb-28 19:06N 40°39' W 074°06'2 2.6
2015-Feb-28 18:29N 40°39' W 074°04'1 0.8
2015-Feb-28 17:32N 40°38' W 074°04'0 0.0
2015-Feb-28 13:33N 40°38' W 074°04'0 0.0
2015-Feb-28 12:33N 40°38' W 074°04'0 0.0
2015-Feb-28 11:33N 40°38' W 074°04'0 0.2
2015-Feb-28 10:33N 40°38' W 074°04'1 1.0
2015-Feb-28 09:33N 40°39' W 074°04'2 1.6
2015-Feb-28 08:33N 40°39' W 074°06'0 0.0
2015-Feb-28 07:33N 40°39' W 074°06'0 0.3
2015-Feb-28 06:30N 40°39' W 074°06'1 1.1
2015-Feb-28 05:33N 40°39' W 074°07'3 2.5
2015-Feb-28 04:27N 40°41' W 074°09'0 0.0
2015-Feb-28 03:33N 40°41' W 074°09'0 0.0
2015-Feb-28 02:33N 40°41' W 074°09'0 0.0
2015-Feb-28 01:33N 40°41' W 074°09'0 0.0
2015-Feb-28 00:33N 40°41' W 074°09'0 0.0
2015-Feb-27 23:32N 40°41' W 074°09'0 0.3
2015-Feb-27 22:33N 40°41' W 074°09'0 0.0
2015-Feb-27 21:33N 40°41' W 074°09'0 0.0
2015-Feb-27 20:33N 40°41' W 074°09'4 4.0
2015-Feb-27 19:33N 40°39' W 074°05'1 1.1
2015-Feb-27 18:33N 40°40' W 074°05'0 0.3
2015-Feb-27 17:33N 40°40' W 074°05'1 1.2
2015-Feb-27 16:33N 40°39' W 074°05'1 1.4
2015-Feb-27 15:31N 40°38' W 074°07'1 1.3
2015-Feb-27 14:32N 40°39' W 074°09'3 2.6
2015-Feb-27 13:33N 40°41' W 074°09'0 0.0
2015-Feb-27 12:33N 40°41' W 074°09'0 0.0
2015-Feb-27 09:23N 40°41' W 074°09'0 0.0
2015-Feb-27 08:33N 40°41' W 074°09'0 0.0
2015-Feb-27 04:29N 40°41' W 074°09'0 0.0
2015-Feb-26 21:24N 40°41' W 074°10'0 0.0
2015-Feb-26 20:32N 40°41' W 074°10'0 0.0
2015-Feb-26 19:31N 40°41' W 074°10'1 0.5
2015-Feb-26 18:32N 40°41' W 074°09'0 0.0
2015-Feb-26 17:32N 40°41' W 074°09'0 0.0
2015-Feb-26 16:25N 40°41' W 074°09'0 0.0
2015-Feb-26 15:25N 40°41' W 074°09'0 0.0
2015-Feb-26 14:33N 40°41' W 074°09'0 0.1
2015-Feb-26 13:29N 40°41' W 074°09'1 0.9
2015-Feb-26 12:28N 40°42' W 074°08'0 0.0
2015-Feb-26 11:28N 40°42' W 074°08'0 0.0
2015-Feb-26 10:08N 40°42' W 074°08'0 0.0
2015-Feb-26 08:10N 40°42' W 074°08'0 0.0
2015-Feb-26 07:18N 40°42' W 074°08'0 0.0
2015-Feb-26 06:24N 40°42' W 074°08'0 0.0
2015-Feb-26 05:24N 40°42' W 074°08'1 1.1
2015-Feb-26 04:33N 40°41' W 074°09'2 2.3
2015-Feb-26 03:33N 40°39' W 074°08'5 1.7
2015-Feb-26 00:33N 40°39' W 074°02'1 1.4
2015-Feb-25 23:30N 40°40' W 074°00'0 0.0
2015-Feb-25 22:32N 40°40' W 074°00'4 3.6
2015-Feb-25 21:28N 40°39' W 074°05'3 2.9
2015-Feb-25 20:16N 40°41' W 074°09'0 0.0
2015-Feb-25 19:21N 40°41' W 074°09'0 0.1
2015-Feb-25 18:31N 40°41' W 074°09'1 0.7
2015-Feb-25 17:30N 40°41' W 074°08'1 1.2
2015-Feb-25 16:20N 40°41' W 074°09'0 0.0
2015-Feb-25 15:32N 40°41' W 074°09'2 1.9
2015-Feb-25 14:33N 40°40' W 074°09'2 2.3
2015-Feb-25 13:32N 40°39' W 074°06'2 1.6
2015-Feb-25 12:33N 40°39' W 074°07'3 0.5
2015-Feb-25 07:33N 40°41' W 074°09'1 0.8
2015-Feb-25 06:33N 40°40' W 074°08'0 0.0
2015-Feb-25 05:33N 40°40' W 074°08'2 1.6
2015-Feb-25 04:33N 40°42' W 074°08'3 3.2
2015-Feb-25 03:33N 40°39' W 074°09'3 2.5
2015-Feb-25 02:33N 40°39' W 074°05'1 0.4
2015-Feb-24 22:25N 40°39' W 074°07'0 0.0
2015-Feb-24 16:33N 40°39' W 074°07'4 0.8
2015-Feb-24 12:06N 40°38' W 074°12'4 7.8
2015-Feb-24 11:33N 40°39' W 074°07'6 5.9
2015-Feb-24 10:33N 40°34' W 074°01'8 7.5
2015-Feb-24 09:27N 40°35' W 073°50'8 3.8
2015-Feb-24 07:20N 40°34' W 074°01'5 7.0
2015-Feb-24 06:33N 40°40' W 074°01'3 3.1
2015-Feb-24 05:33N 40°39' W 074°05'1 0.7
2015-Feb-24 04:33N 40°39' W 074°06'5 1.0
2015-Feb-23 23:19N 40°37' W 074°12'4 5.3
2015-Feb-23 22:32N 40°33' W 074°14'0 0.4
2015-Feb-23 21:20N 40°33' W 074°14'0 0.1
2015-Feb-23 20:23N 40°33' W 074°15'5 4.0
2015-Feb-23 19:08N 40°38' W 074°12'2 3.9
2015-Feb-23 18:29N 40°39' W 074°09'4 4.7
2015-Feb-23 17:33N 40°39' W 074°03'2 2.3
2015-Feb-23 16:33N 40°40' W 074°00'0 0.3
2015-Feb-23 15:33N 40°40' W 074°00'0 0.0
2015-Feb-23 14:33N 40°40' W 074°00'0 0.0
2015-Feb-23 13:33N 40°40' W 074°00'4 3.7
2015-Feb-23 12:33N 40°39' W 074°05'1 0.0
2015-Feb-23 01:33N 40°39' W 074°04'1 1.0
2015-Feb-23 00:33N 40°38' W 074°04'0 0.3
2015-Feb-22 23:33N 40°38' W 074°04'0 0.0
2015-Feb-22 22:33N 40°38' W 074°04'0 0.0
2015-Feb-22 21:33N 40°38' W 074°04'3 2.2
2015-Feb-22 20:23N 40°39' W 074°07'0 0.0
2015-Feb-22 19:19N 40°39' W 074°07'0 0.0
2015-Feb-22 17:14N 40°39' W 074°07'5 6.7
2015-Feb-22 16:33N 40°40' W 074°01'3 2.6
2015-Feb-22 15:33N 40°37' W 074°03'2 2.0
2015-Feb-22 14:33N 40°35' W 074°02'4 4.3
2015-Feb-22 13:33N 40°40' W 074°01'1 0.8
2015-Feb-22 12:33N 40°40' W 074°00'0 0.0
2015-Feb-22 11:33N 40°40' W 074°00'0 0.0
2015-Feb-22 10:33N 40°40' W 074°00'0 0.1
2015-Feb-22 09:33N 40°40' W 074°00'0 0.0
2015-Feb-22 08:33N 40°40' W 074°00'0 0.0
2015-Feb-22 07:33N 40°40' W 074°00'0 0.1
2015-Feb-22 06:33N 40°40' W 074°00'2 1.9
2015-Feb-22 05:33N 40°42' W 074°00'6 5.1
2015-Feb-22 04:23N 40°47' W 073°56'4 1.9
2015-Feb-22 02:07N 40°48' W 073°50'1 1.3
2015-Feb-22 01:22N 40°48' W 073°49'1 0.9
2015-Feb-22 00:29N 40°48' W 073°48'2 1.9
2015-Feb-21 23:24N 40°50' W 073°47'  
Track history (hours):
 
Tides and Currents Weather Stations Pressure Air Temp Water Temp Dewpoint Dewpoint Depression Visibility Wind Speed Wind Dir Waves Ship Positions

Emerald Coast

Owner: Dann Marine Towing, LC, Chesapeake City, MD. More information available from US FCC via Universal Licensing System and Coast Guard Vessel Documentation Center.

Last reported at 2015-Mar-03 22:33 UTC. Time now 2015-Mar-03 22:38 UTC.
Position N 40°41' W 074°03'.

Length 28 m; draft 3 m.

Type: Towing. MMSI: 367097920.

Date/timePositionNaut miles runAvg speedWind from/ knotsBaromVisibWave heightAir tempDewpointWater temp
2015-Mar-03 22:33N 40°41' W 074°03'2 2.5
2015-Mar-03 21:33N 40°39' W 074°05'1 1.3
2015-Mar-03 20:27N 40°39' W 074°07'0 0.0
2015-Mar-03 19:30N 40°39' W 074°07'2 2.6
2015-Mar-03 18:33N 40°39' W 074°04'2 2.3
2015-Mar-03 17:30N 40°39' W 074°07'0 0.0
2015-Mar-03 16:32N 40°39' W 074°07'0 0.0
2015-Mar-03 15:29N 40°39' W 074°07'0 0.3
2015-Mar-03 14:29N 40°39' W 074°07'1 1.5
2015-Mar-03 13:33N 40°39' W 074°05'1 1.3
2015-Mar-03 12:33N 40°38' W 074°04'1 0.6
2015-Mar-03 11:33N 40°38' W 074°04'0 0.3
2015-Mar-03 10:33N 40°38' W 074°04'0 0.3
2015-Mar-03 09:33N 40°38' W 074°04'0 0.2
2015-Mar-03 08:33N 40°38' W 074°04'0 0.2
2015-Mar-03 07:33N 40°38' W 074°04'0 0.0
2015-Mar-03 06:33N 40°38' W 074°04'0 0.0
2015-Mar-03 05:33N 40°38' W 074°04'0 0.0
2015-Mar-03 04:33N 40°38' W 074°04'0 0.0
2015-Mar-03 03:33N 40°38' W 074°04'1 1.3
2015-Mar-03 02:33N 40°39' W 074°03'0 0.0
2015-Mar-03 01:33N 40°39' W 074°03'0 0.0
2015-Mar-03 00:33N 40°39' W 074°03'0 0.0
2015-Mar-02 23:33N 40°39' W 074°03'0 0.0
2015-Mar-02 22:33N 40°39' W 074°03'0 0.0
2015-Mar-02 21:33N 40°39' W 074°03'3 2.7
2015-Mar-02 20:32N 40°39' W 074°06'0 0.1
2015-Mar-02 19:33N 40°39' W 074°06'1 0.9
2015-Mar-02 18:33N 40°39' W 074°08'1 0.6
2015-Mar-02 16:33N 40°40' W 074°09'2 1.7
2015-Mar-02 15:32N 40°41' W 074°10'0 0.0
2015-Mar-02 14:32N 40°41' W 074°10'2 2.4
2015-Mar-02 13:33N 40°39' W 074°09'6 6.5
2015-Mar-02 12:33N 40°40' W 074°01'3 3.1
2015-Mar-02 11:33N 40°38' W 074°04'0 0.2
2015-Mar-02 10:33N 40°38' W 074°04'0 0.0
2015-Mar-02 09:33N 40°38' W 074°04'0 0.0
2015-Mar-02 08:33N 40°38' W 074°04'0 0.2
2015-Mar-02 07:33N 40°38' W 074°04'0 0.0
2015-Mar-02 06:33N 40°38' W 074°04'0 0.1
2015-Mar-02 05:33N 40°38' W 074°04'3 2.7
2015-Mar-02 04:33N 40°40' W 074°01'0 0.4
2015-Mar-02 03:33N 40°40' W 074°00'0 0.0
2015-Mar-02 02:33N 40°40' W 074°00'4 4.3
2015-Mar-02 01:33N 40°39' W 074°06'0 0.4
2015-Mar-02 00:33N 40°39' W 074°06'3 2.5
2015-Mar-01 23:33N 40°40' W 074°03'3 2.7
2015-Mar-01 22:33N 40°37' W 074°04'0 0.2
2015-Mar-01 21:33N 40°37' W 074°03'0 0.0
2015-Mar-01 20:33N 40°37' W 074°03'0 0.2
2015-Mar-01 19:29N 40°37' W 074°03'0 0.1
2015-Mar-01 18:33N 40°37' W 074°03'4 3.6
2015-Mar-01 17:33N 40°40' W 074°00'0 0.1
2015-Mar-01 16:33N 40°40' W 074°01'5 5.0
2015-Mar-01 15:33N 40°39' W 074°07'2 1.7
2015-Mar-01 14:33N 40°39' W 074°09'0 0.1
2015-Mar-01 13:33N 40°39' W 074°09'3 2.6
2015-Mar-01 12:33N 40°39' W 074°06'1 1.4
2015-Mar-01 11:33N 40°40' W 074°04'1 1.2
2015-Mar-01 10:33N 40°39' W 074°05'2 1.9
2015-Mar-01 09:33N 40°39' W 074°03'0 0.0
2015-Mar-01 08:33N 40°39' W 074°03'0 0.0
2015-Mar-01 07:33N 40°39' W 074°03'0 0.2
2015-Mar-01 06:33N 40°39' W 074°03'0 0.0
2015-Mar-01 05:33N 40°39' W 074°03'0 0.0
2015-Mar-01 04:33N 40°39' W 074°03'0 0.0
2015-Mar-01 03:32N 40°39' W 074°03'0 0.0
2015-Mar-01 02:33N 40°39' W 074°03'0 0.1
2015-Mar-01 01:33N 40°39' W 074°03'1 1.3
2015-Mar-01 00:32N 40°39' W 074°05'1 0.7
2015-Feb-28 23:33N 40°39' W 074°05'2 1.5
2015-Feb-28 22:33N 40°39' W 074°03'1 0.8
2015-Feb-28 21:23N 40°39' W 074°05'1 0.5
2015-Feb-28 19:06N 40°39' W 074°06'2 2.6
2015-Feb-28 18:29N 40°39' W 074°04'1 0.8
2015-Feb-28 17:32N 40°38' W 074°04'0 0.0
2015-Feb-28 13:33N 40°38' W 074°04'0 0.0
2015-Feb-28 12:33N 40°38' W 074°04'0 0.0
2015-Feb-28 11:33N 40°38' W 074°04'0 0.2
2015-Feb-28 10:33N 40°38' W 074°04'1 1.0
2015-Feb-28 09:33N 40°39' W 074°04'2 1.6
2015-Feb-28 08:33N 40°39' W 074°06'0 0.0
2015-Feb-28 07:33N 40°39' W 074°06'0 0.3
2015-Feb-28 06:30N 40°39' W 074°06'1 1.1
2015-Feb-28 05:33N 40°39' W 074°07'3 2.5
2015-Feb-28 04:27N 40°41' W 074°09'0 0.0
2015-Feb-28 03:33N 40°41' W 074°09'0 0.0
2015-Feb-28 02:33N 40°41' W 074°09'0 0.0
2015-Feb-28 01:33N 40°41' W 074°09'0 0.0
2015-Feb-28 00:33N 40°41' W 074°09'0 0.0
2015-Feb-27 23:32N 40°41' W 074°09'0 0.3
2015-Feb-27 22:33N 40°41' W 074°09'0 0.0
2015-Feb-27 21:33N 40°41' W 074°09'0 0.0
2015-Feb-27 20:33N 40°41' W 074°09'4 4.0
2015-Feb-27 19:33N 40°39' W 074°05'1 1.1
2015-Feb-27 18:33N 40°40' W 074°05'0 0.3
2015-Feb-27 17:33N 40°40' W 074°05'1 1.2
2015-Feb-27 16:33N 40°39' W 074°05'1 1.4
2015-Feb-27 15:31N 40°38' W 074°07'1 1.3
2015-Feb-27 14:32N 40°39' W 074°09'3 2.6
2015-Feb-27 13:33N 40°41' W 074°09'0 0.0
2015-Feb-27 12:33N 40°41' W 074°09'0 0.0
2015-Feb-27 09:23N 40°41' W 074°09'0 0.0
2015-Feb-27 08:33N 40°41' W 074°09'0 0.0
2015-Feb-27 04:29N 40°41' W 074°09'0 0.0
2015-Feb-26 21:24N 40°41' W 074°10'0 0.0
2015-Feb-26 20:32N 40°41' W 074°10'0 0.0
2015-Feb-26 19:31N 40°41' W 074°10'1 0.5
2015-Feb-26 18:32N 40°41' W 074°09'0 0.0
2015-Feb-26 17:32N 40°41' W 074°09'0 0.0
2015-Feb-26 16:25N 40°41' W 074°09'0 0.0
2015-Feb-26 15:25N 40°41' W 074°09'0 0.0
2015-Feb-26 14:33N 40°41' W 074°09'0 0.1
2015-Feb-26 13:29N 40°41' W 074°09'1 0.9
2015-Feb-26 12:28N 40°42' W 074°08'0 0.0
2015-Feb-26 11:28N 40°42' W 074°08'0 0.0
2015-Feb-26 10:08N 40°42' W 074°08'0 0.0
2015-Feb-26 08:10N 40°42' W 074°08'0 0.0
2015-Feb-26 07:18N 40°42' W 074°08'0 0.0
2015-Feb-26 06:24N 40°42' W 074°08'0 0.0
2015-Feb-26 05:24N 40°42' W 074°08'1 1.1
2015-Feb-26 04:33N 40°41' W 074°09'2 2.3
2015-Feb-26 03:33N 40°39' W 074°08'5 1.7
2015-Feb-26 00:33N 40°39' W 074°02'1 1.4
2015-Feb-25 23:30N 40°40' W 074°00'0 0.0
2015-Feb-25 22:32N 40°40' W 074°00'4 3.6
2015-Feb-25 21:28N 40°39' W 074°05'3 2.9
2015-Feb-25 20:16N 40°41' W 074°09'0 0.0
2015-Feb-25 19:21N 40°41' W 074°09'0 0.1
2015-Feb-25 18:31N 40°41' W 074°09'1 0.7
2015-Feb-25 17:30N 40°41' W 074°08'1 1.2
2015-Feb-25 16:20N 40°41' W 074°09'0 0.0
2015-Feb-25 15:32N 40°41' W 074°09'2 1.9
2015-Feb-25 14:33N 40°40' W 074°09'2 2.3
2015-Feb-25 13:32N 40°39' W 074°06'2 1.6
2015-Feb-25 12:33N 40°39' W 074°07'3 0.5
2015-Feb-25 07:33N 40°41' W 074°09'1 0.8
2015-Feb-25 06:33N 40°40' W 074°08'0 0.0
2015-Feb-25 05:33N 40°40' W 074°08'2 1.6
2015-Feb-25 04:33N 40°42' W 074°08'3 3.2
2015-Feb-25 03:33N 40°39' W 074°09'3 2.5
2015-Feb-25 02:33N 40°39' W 074°05'1 0.4
2015-Feb-24 22:25N 40°39' W 074°07'0 0.0
2015-Feb-24 16:33N 40°39' W 074°07'4 0.8
2015-Feb-24 12:06N 40°38' W 074°12'4 7.8
2015-Feb-24 11:33N 40°39' W 074°07'6 5.9
2015-Feb-24 10:33N 40°34' W 074°01'8 7.5
2015-Feb-24 09:27N 40°35' W 073°50'8 3.8
2015-Feb-24 07:20N 40°34' W 074°01'5 7.0
2015-Feb-24 06:33N 40°40' W 074°01'3 3.1
2015-Feb-24 05:33N 40°39' W 074°05'1 0.7
2015-Feb-24 04:33N 40°39' W 074°06'5 1.0
2015-Feb-23 23:19N 40°37' W 074°12'4 5.3
2015-Feb-23 22:32N 40°33' W 074°14'0 0.4
2015-Feb-23 21:20N 40°33' W 074°14'0 0.1
2015-Feb-23 20:23N 40°33' W 074°15'5 4.0
2015-Feb-23 19:08N 40°38' W 074°12'2 3.9
2015-Feb-23 18:29N 40°39' W 074°09'4 4.7
2015-Feb-23 17:33N 40°39' W 074°03'2 2.3
2015-Feb-23 16:33N 40°40' W 074°00'0 0.3
2015-Feb-23 15:33N 40°40' W 074°00'0 0.0
2015-Feb-23 14:33N 40°40' W 074°00'0 0.0
2015-Feb-23 13:33N 40°40' W 074°00'4 3.7
2015-Feb-23 12:33N 40°39' W 074°05'1 0.0
2015-Feb-23 01:33N 40°39' W 074°04'1 1.0
2015-Feb-23 00:33N 40°38' W 074°04'0 0.3
2015-Feb-22 23:33N 40°38' W 074°04'0 0.0
2015-Feb-22 22:33N 40°38' W 074°04'0 0.0
2015-Feb-22 21:33N 40°38' W 074°04'3 2.2
2015-Feb-22 20:23N 40°39' W 074°07'0 0.0
2015-Feb-22 19:19N 40°39' W 074°07'0 0.0
2015-Feb-22 17:14N 40°39' W 074°07'5 6.7
2015-Feb-22 16:33N 40°40' W 074°01'3 2.6
2015-Feb-22 15:33N 40°37' W 074°03'2 2.0
2015-Feb-22 14:33N 40°35' W 074°02'4 4.3
2015-Feb-22 13:33N 40°40' W 074°01'1 0.8
2015-Feb-22 12:33N 40°40' W 074°00'0 0.0
2015-Feb-22 11:33N 40°40' W 074°00'0 0.0
2015-Feb-22 10:33N 40°40' W 074°00'0 0.1
2015-Feb-22 09:33N 40°40' W 074°00'0 0.0
2015-Feb-22 08:33N 40°40' W 074°00'0 0.0
2015-Feb-22 07:33N 40°40' W 074°00'0 0.1
2015-Feb-22 06:33N 40°40' W 074°00'2 1.9
2015-Feb-22 05:33N 40°42' W 074°00'6 5.1
2015-Feb-22 04:23N 40°47' W 073°56'4 1.9
2015-Feb-22 02:07N 40°48' W 073°50'1 1.3
2015-Feb-22 01:22N 40°48' W 073°49'1 0.9
2015-Feb-22 00:29N 40°48' W 073°48'2 1.9
2015-Feb-21 23:24N 40°50' W 073°47'  

Dump ship's entire track history